sensor_id;sensor_type;location;lat;lon;timestamp;pressure;altitude;pressure_sealevel;temperature;humidity
21817;BME280;13247;47.504;7.382;2024-03-02T00:02:26;96273.63;;;4.32;100.00
21817;BME280;13247;47.504;7.382;2024-03-02T00:05:22;96281.19;;;4.41;100.00
21817;BME280;13247;47.504;7.382;2024-03-02T00:08:07;96274.84;;;4.52;100.00
21817;BME280;13247;47.504;7.382;2024-03-02T00:10:57;96270.72;;;4.44;100.00
21817;BME280;13247;47.504;7.382;2024-03-02T00:13:42;96268.16;;;4.42;100.00
21817;BME280;13247;47.504;7.382;2024-03-02T00:16:30;96267.56;;;4.31;100.00
21817;BME280;13247;47.504;7.382;2024-03-02T00:19:16;96265.09;;;4.27;100.00
21817;BME280;13247;47.504;7.382;2024-03-02T00:22:01;96262.31;;;3.97;100.00
21817;BME280;13247;47.504;7.382;2024-03-02T00:24:47;96266.00;;;4.26;100.00
21817;BME280;13247;47.504;7.382;2024-03-02T00:27:32;96267.50;;;4.34;100.00
21817;BME280;13247;47.504;7.382;2024-03-02T00:33:43;96260.78;;;3.90;100.00
21817;BME280;13247;47.504;7.382;2024-03-02T00:36:28;96266.94;;;3.85;100.00
21817;BME280;13247;47.504;7.382;2024-03-02T00:39:15;96268.53;;;3.92;100.00
21817;BME280;13247;47.504;7.382;2024-03-02T00:42:01;96266.84;;;4.25;100.00
21817;BME280;13247;47.504;7.382;2024-03-02T00:44:46;96258.25;;;4.23;100.00
21817;BME280;13247;47.504;7.382;2024-03-02T00:47:32;96258.38;;;4.18;100.00
21817;BME280;13247;47.504;7.382;2024-03-02T00:50:21;96253.06;;;4.23;100.00
21817;BME280;13247;47.504;7.382;2024-03-02T00:53:08;96246.09;;;3.89;100.00
21817;BME280;13247;47.504;7.382;2024-03-02T00:55:54;96251.81;;;3.67;100.00
21817;BME280;13247;47.504;7.382;2024-03-02T00:58:39;96260.94;;;3.83;100.00
21817;BME280;13247;47.504;7.382;2024-03-02T01:01:24;96258.91;;;3.57;100.00
21817;BME280;13247;47.504;7.382;2024-03-02T01:04:09;96270.09;;;3.59;100.00
21817;BME280;13247;47.504;7.382;2024-03-02T01:06:54;96273.59;;;3.96;100.00
21817;BME280;13247;47.504;7.382;2024-03-02T01:09:39;96269.97;;;4.04;100.00
21817;BME280;13247;47.504;7.382;2024-03-02T01:12:25;96263.91;;;4.05;100.00
21817;BME280;13247;47.504;7.382;2024-03-02T01:15:10;96261.13;;;3.75;100.00
21817;BME280;13247;47.504;7.382;2024-03-02T01:17:56;96254.88;;;3.84;100.00
21817;BME280;13247;47.504;7.382;2024-03-02T01:20:40;96247.91;;;3.86;100.00
21817;BME280;13247;47.504;7.382;2024-03-02T01:23:25;96257.72;;;3.73;100.00
21817;BME280;13247;47.504;7.382;2024-03-02T01:26:11;96258.00;;;3.60;100.00
21817;BME280;13247;47.504;7.382;2024-03-02T01:28:56;96254.59;;;3.58;100.00
21817;BME280;13247;47.504;7.382;2024-03-02T01:31:40;96261.50;;;3.57;100.00
21817;BME280;13247;47.504;7.382;2024-03-02T01:34:26;96269.03;;;3.28;100.00
21817;BME280;13247;47.504;7.382;2024-03-02T01:37:11;96260.22;;;3.37;100.00
21817;BME280;13247;47.504;7.382;2024-03-02T01:39:56;96262.75;;;3.40;100.00
21817;BME280;13247;47.504;7.382;2024-03-02T01:42:40;96258.31;;;3.46;100.00
21817;BME280;13247;47.504;7.382;2024-03-02T01:45:25;96249.16;;;3.68;100.00
21817;BME280;13247;47.504;7.382;2024-03-02T01:48:09;96256.31;;;3.57;100.00
21817;BME280;13247;47.504;7.382;2024-03-02T01:50:54;96260.91;;;3.46;100.00
21817;BME280;13247;47.504;7.382;2024-03-02T01:53:40;96268.19;;;3.28;100.00
21817;BME280;13247;47.504;7.382;2024-03-02T01:56:24;96264.31;;;3.48;100.00
21817;BME280;13247;47.504;7.382;2024-03-02T01:59:09;96253.59;;;3.63;100.00
21817;BME280;13247;47.504;7.382;2024-03-02T02:01:53;96255.22;;;3.69;100.00
21817;BME280;13247;47.504;7.382;2024-03-02T02:04:38;96253.59;;;3.65;100.00
21817;BME280;13247;47.504;7.382;2024-03-02T02:07:22;96255.31;;;3.64;100.00
21817;BME280;13247;47.504;7.382;2024-03-02T02:10:07;96255.47;;;3.95;100.00
21817;BME280;13247;47.504;7.382;2024-03-02T02:12:52;96243.97;;;4.07;100.00
21817;BME280;13247;47.504;7.382;2024-03-02T02:15:37;96238.63;;;4.13;100.00
21817;BME280;13247;47.504;7.382;2024-03-02T02:18:22;96233.41;;;4.14;100.00
21817;BME280;13247;47.504;7.382;2024-03-02T02:21:07;96232.22;;;4.27;100.00
21817;BME280;13247;47.504;7.382;2024-03-02T02:23:52;96228.72;;;3.56;100.00
21817;BME280;13247;47.504;7.382;2024-03-02T02:26:37;96227.44;;;3.75;100.00
21817;BME280;13247;47.504;7.382;2024-03-02T02:29:21;96231.66;;;3.79;100.00
21817;BME280;13247;47.504;7.382;2024-03-02T02:32:06;96232.41;;;3.83;100.00
21817;BME280;13247;47.504;7.382;2024-03-02T02:34:54;96229.72;;;3.87;100.00
21817;BME280;13247;47.504;7.382;2024-03-02T02:37:39;96224.34;;;3.95;100.00
21817;BME280;13247;47.504;7.382;2024-03-02T02:40:24;96227.81;;;3.95;100.00
21817;BME280;13247;47.504;7.382;2024-03-02T02:43:08;96220.84;;;4.33;100.00
21817;BME280;13247;47.504;7.382;2024-03-02T02:45:53;96213.84;;;4.36;100.00
21817;BME280;13247;47.504;7.382;2024-03-02T02:48:37;96202.03;;;4.57;100.00
21817;BME280;13247;47.504;7.382;2024-03-02T02:51:22;96206.38;;;4.56;100.00
21817;BME280;13247;47.504;7.382;2024-03-02T02:54:08;96198.03;;;4.45;100.00
21817;BME280;13247;47.504;7.382;2024-03-02T02:56:53;96184.81;;;4.21;100.00
21817;BME280;13247;47.504;7.382;2024-03-02T02:59:37;96189.34;;;4.13;100.00
21817;BME280;13247;47.504;7.382;2024-03-02T03:02:22;96193.66;;;4.14;100.00
21817;BME280;13247;47.504;7.382;2024-03-02T03:05:08;96196.63;;;3.98;100.00
21817;BME280;13247;47.504;7.382;2024-03-02T03:07:52;96189.41;;;4.11;100.00
21817;BME280;13247;47.504;7.382;2024-03-02T03:10:37;96203.72;;;3.54;100.00
21817;BME280;13247;47.504;7.382;2024-03-02T03:13:21;96198.72;;;3.45;100.00
21817;BME280;13247;47.504;7.382;2024-03-02T03:16:07;96207.41;;;3.80;100.00
21817;BME280;13247;47.504;7.382;2024-03-02T03:18:51;96202.47;;;3.71;100.00
21817;BME280;13247;47.504;7.382;2024-03-02T03:21:37;96200.94;;;3.63;100.00
21817;BME280;13247;47.504;7.382;2024-03-02T03:24:22;96204.09;;;3.75;100.00
21817;BME280;13247;47.504;7.382;2024-03-02T03:27:07;96197.38;;;4.02;100.00
21817;BME280;13247;47.504;7.382;2024-03-02T03:29:51;96191.16;;;3.74;100.00
21817;BME280;13247;47.504;7.382;2024-03-02T03:32:36;96191.44;;;3.62;100.00
21817;BME280;13247;47.504;7.382;2024-03-02T03:35:21;96194.88;;;3.62;100.00
21817;BME280;13247;47.504;7.382;2024-03-02T03:38:07;96198.03;;;3.75;100.00
21817;BME280;13247;47.504;7.382;2024-03-02T03:40:51;96197.03;;;3.82;100.00
21817;BME280;13247;47.504;7.382;2024-03-02T03:43:36;96199.88;;;4.07;100.00
21817;BME280;13247;47.504;7.382;2024-03-02T03:46:21;96187.41;;;4.22;100.00
21817;BME280;13247;47.504;7.382;2024-03-02T03:49:06;96187.94;;;4.35;100.00
21817;BME280;13247;47.504;7.382;2024-03-02T03:51:52;96190.81;;;4.23;100.00
21817;BME280;13247;47.504;7.382;2024-03-02T03:54:36;96188.38;;;4.17;100.00
21817;BME280;13247;47.504;7.382;2024-03-02T03:57:22;96187.63;;;3.76;100.00
21817;BME280;13247;47.504;7.382;2024-03-02T04:00:08;96178.31;;;4.05;100.00
21817;BME280;13247;47.504;7.382;2024-03-02T04:02:54;96178.78;;;3.85;100.00
21817;BME280;13247;47.504;7.382;2024-03-02T04:05:39;96165.00;;;3.83;100.00
21817;BME280;13247;47.504;7.382;2024-03-02T04:08:24;96179.25;;;4.02;100.00
21817;BME280;13247;47.504;7.382;2024-03-02T04:11:09;96180.97;;;4.02;100.00
21817;BME280;13247;47.504;7.382;2024-03-02T04:13:53;96167.06;;;4.38;100.00
21817;BME280;13247;47.504;7.382;2024-03-02T04:16:38;96172.91;;;4.47;100.00
21817;BME280;13247;47.504;7.382;2024-03-02T04:19:23;96170.72;;;4.63;100.00
21817;BME280;13247;47.504;7.382;2024-03-02T04:22:08;96165.28;;;4.72;100.00
21817;BME280;13247;47.504;7.382;2024-03-02T04:24:52;96171.06;;;4.83;100.00
21817;BME280;13247;47.504;7.382;2024-03-02T04:27:37;96168.16;;;4.92;100.00
21817;BME280;13247;47.504;7.382;2024-03-02T04:30:22;96157.16;;;5.13;100.00
21817;BME280;13247;47.504;7.382;2024-03-02T04:33:06;96157.91;;;5.18;100.00
21817;BME280;13247;47.504;7.382;2024-03-02T04:35:54;96148.03;;;5.29;100.00
21817;BME280;13247;47.504;7.382;2024-03-02T04:38:39;96156.38;;;5.11;100.00
21817;BME280;13247;47.504;7.382;2024-03-02T04:41:24;96157.91;;;5.18;100.00
21817;BME280;13247;47.504;7.382;2024-03-02T04:44:08;96150.38;;;5.09;100.00
21817;BME280;13247;47.504;7.382;2024-03-02T04:46:53;96148.13;;;5.26;100.00
21817;BME280;13247;47.504;7.382;2024-03-02T04:49:37;96145.81;;;5.45;100.00
21817;BME280;13247;47.504;7.382;2024-03-02T04:52:22;96141.88;;;5.61;100.00
21817;BME280;13247;47.504;7.382;2024-03-02T04:55:06;96145.34;;;5.60;100.00
21817;BME280;13247;47.504;7.382;2024-03-02T04:57:58;96142.88;;;5.55;100.00
21817;BME280;13247;47.504;7.382;2024-03-02T05:00:42;96140.13;;;5.34;100.00
21817;BME280;13247;47.504;7.382;2024-03-02T05:03:31;96143.03;;;5.23;100.00
21817;BME280;13247;47.504;7.382;2024-03-02T05:06:18;96144.31;;;5.38;100.00
21817;BME280;13247;47.504;7.382;2024-03-02T05:09:03;96144.53;;;5.30;100.00
21817;BME280;13247;47.504;7.382;2024-03-02T05:11:47;96142.88;;;5.55;100.00
21817;BME280;13247;47.504;7.382;2024-03-02T05:14:54;96141.25;;;5.53;100.00
21817;BME280;13247;47.504;7.382;2024-03-02T05:17:39;96145.88;;;5.71;100.00
21817;BME280;13247;47.504;7.382;2024-03-02T05:20:24;96152.81;;;5.71;100.00
21817;BME280;13247;47.504;7.382;2024-03-02T05:23:08;96151.31;;;5.64;100.00
21817;BME280;13247;47.504;7.382;2024-03-02T05:25:53;96155.09;;;5.53;100.00
21817;BME280;13247;47.504;7.382;2024-03-02T05:28:37;96148.91;;;5.30;100.00
21817;BME280;13247;47.504;7.382;2024-03-02T05:31:22;96157.72;;;5.24;100.00
21817;BME280;13247;47.504;7.382;2024-03-02T05:34:06;96164.69;;;5.22;100.00
21817;BME280;13247;47.504;7.382;2024-03-02T05:36:51;96158.97;;;5.40;100.00
21817;BME280;13247;47.504;7.382;2024-03-02T05:39:35;96157.91;;;5.18;100.00
21817;BME280;13247;47.504;7.382;2024-03-02T05:42:20;96155.16;;;5.23;100.00
21817;BME280;13247;47.504;7.382;2024-03-02T05:45:05;96161.84;;;5.31;100.00
21817;BME280;13247;47.504;7.382;2024-03-02T05:47:50;96150.31;;;5.40;100.00
21817;BME280;13247;47.504;7.382;2024-03-02T05:50:34;96149.59;;;5.06;100.00
21817;BME280;13247;47.504;7.382;2024-03-02T05:53:19;96165.75;;;4.86;100.00
21817;BME280;13247;47.504;7.382;2024-03-02T05:56:04;96162.22;;;4.89;100.00
21817;BME280;13247;47.504;7.382;2024-03-02T05:58:49;96160.06;;;5.03;100.00
21817;BME280;13247;47.504;7.382;2024-03-02T06:01:53;96169.81;;;4.96;100.00
21817;BME280;13247;47.504;7.382;2024-03-02T06:04:39;96174.09;;;4.97;100.00
21817;BME280;13247;47.504;7.382;2024-03-02T06:07:23;96163.59;;;5.02;100.00
21817;BME280;13247;47.504;7.382;2024-03-02T06:10:08;96169.81;;;4.96;100.00
21817;BME280;13247;47.504;7.382;2024-03-02T06:12:53;96169.16;;;4.88;100.00
21817;BME280;13247;47.504;7.382;2024-03-02T06:15:37;96171.22;;;4.77;100.00
21817;BME280;13247;47.504;7.382;2024-03-02T06:18:22;96169.94;;;4.92;100.00
21817;BME280;13247;47.504;7.382;2024-03-02T06:21:06;96168.19;;;4.61;100.00
21817;BME280;13247;47.504;7.382;2024-03-02T06:23:51;96178.03;;;4.49;100.00
21817;BME280;13247;47.504;7.382;2024-03-02T06:26:35;96175.69;;;4.72;100.00
21817;BME280;13247;47.504;7.382;2024-03-02T06:29:20;96177.13;;;4.50;100.00
21817;BME280;13247;47.504;7.382;2024-03-02T06:32:06;96189.28;;;4.48;100.00
21817;BME280;13247;47.504;7.382;2024-03-02T06:34:51;96179.72;;;4.51;100.00
21817;BME280;13247;47.504;7.382;2024-03-02T06:37:36;96182.72;;;4.67;100.00
21817;BME280;13247;47.504;7.382;2024-03-02T06:40:22;96177.28;;;4.44;100.00
21817;BME280;13247;47.504;7.382;2024-03-02T06:43:07;96174.31;;;4.59;100.00
21817;BME280;13247;47.504;7.382;2024-03-02T06:45:52;96176.47;;;4.42;100.00
21817;BME280;13247;47.504;7.382;2024-03-02T06:48:36;96186.22;;;4.66;100.00
21817;BME280;13247;47.504;7.382;2024-03-02T06:51:21;96179.63;;;4.21;100.00
21817;BME280;13247;47.504;7.382;2024-03-02T06:54:06;96183.72;;;4.31;100.00
21817;BME280;13247;47.504;7.382;2024-03-02T06:56:53;96185.75;;;4.18;100.00
21817;BME280;13247;47.504;7.382;2024-03-02T06:59:37;96187.56;;;4.15;100.00
21817;BME280;13247;47.504;7.382;2024-03-02T07:02:22;96193.72;;;4.44;100.00
21817;BME280;13247;47.504;7.382;2024-03-02T07:05:08;96188.34;;;4.18;100.00
21817;BME280;13247;47.504;7.382;2024-03-02T07:07:52;96196.91;;;4.22;100.00
21817;BME280;13247;47.504;7.382;2024-03-02T07:10:37;96191.50;;;4.29;100.00
21817;BME280;13247;47.504;7.382;2024-03-02T07:13:22;96194.66;;;4.42;100.00
21817;BME280;13247;47.504;7.382;2024-03-02T07:16:06;96185.41;;;4.64;100.00
21817;BME280;13247;47.504;7.382;2024-03-02T07:19:12;96179.19;;;4.69;100.00
21817;BME280;13247;47.504;7.382;2024-03-02T07:21:56;96182.00;;;4.94;100.00
21817;BME280;13247;47.504;7.382;2024-03-02T07:24:44;96169.59;;;5.04;100.00
21817;BME280;13247;47.504;7.382;2024-03-02T07:27:31;96172.31;;;4.99;100.00
21817;BME280;13247;47.504;7.382;2024-03-02T07:30:16;96173.38;;;4.92;100.00
21817;BME280;13247;47.504;7.382;2024-03-02T07:33:01;96165.81;;;4.85;100.00
21817;BME280;13247;47.504;7.382;2024-03-02T07:35:45;96175.97;;;4.92;100.00
21817;BME280;13247;47.504;7.382;2024-03-02T07:38:30;96163.72;;;5.26;100.00
21817;BME280;13247;47.504;7.382;2024-03-02T07:41:16;96166.50;;;5.20;100.00
21817;BME280;13247;47.504;7.382;2024-03-02T07:44:00;96175.97;;;5.23;100.00
21817;BME280;13247;47.504;7.382;2024-03-02T07:46:46;96171.47;;;5.55;100.00
21817;BME280;13247;47.504;7.382;2024-03-02T07:49:36;96175.00;;;5.82;100.00
21817;BME280;13247;47.504;7.382;2024-03-02T07:52:21;96170.63;;;6.10;100.00
21817;BME280;13247;47.504;7.382;2024-03-02T07:55:06;96173.41;;;6.06;100.00
21817;BME280;13247;47.504;7.382;2024-03-02T07:57:51;96172.53;;;6.31;100.00
21817;BME280;13247;47.504;7.382;2024-03-02T08:00:36;96163.31;;;6.21;100.00
21817;BME280;13247;47.504;7.382;2024-03-02T08:03:20;96167.88;;;6.41;100.00
21817;BME280;13247;47.504;7.382;2024-03-02T08:06:05;96164.38;;;6.67;100.00
21817;BME280;13247;47.504;7.382;2024-03-02T08:08:50;96160.69;;;6.72;100.00
21817;BME280;13247;47.504;7.382;2024-03-02T08:11:34;96162.94;;;6.83;100.00
21817;BME280;13247;47.504;7.382;2024-03-02T08:14:19;96154.63;;;6.72;100.00
21817;BME280;13247;47.504;7.382;2024-03-02T08:17:04;96166.81;;;6.71;100.00
21817;BME280;13247;47.504;7.382;2024-03-02T08:19:53;96166.63;;;6.76;100.00
21817;BME280;13247;47.504;7.382;2024-03-02T08:22:39;96162.72;;;6.64;100.00
21817;BME280;13247;47.504;7.382;2024-03-02T08:25:24;96176.31;;;6.72;100.00
21817;BME280;13247;47.504;7.382;2024-03-02T08:28:08;96170.06;;;6.78;100.00
21817;BME280;13247;47.504;7.382;2024-03-02T08:30:53;96172.94;;;6.70;100.00
21817;BME280;13247;47.504;7.382;2024-03-02T08:33:37;96166.41;;;7.06;100.00
21817;BME280;13247;47.504;7.382;2024-03-02T08:36:22;96162.16;;;7.27;100.00
21817;BME280;13247;47.504;7.382;2024-03-02T08:39:08;96148.72;;;7.14;100.00
21817;BME280;13247;47.504;7.382;2024-03-02T08:41:59;96151.16;;;7.19;100.00
21817;BME280;13247;47.504;7.382;2024-03-02T08:44:44;96147.88;;;7.14;100.00
21817;BME280;13247;47.504;7.382;2024-03-02T08:47:29;96152.06;;;6.95;100.00
21817;BME280;13247;47.504;7.382;2024-03-02T08:50:14;96149.56;;;7.38;100.00
21817;BME280;13247;47.504;7.382;2024-03-02T08:52:58;96144.44;;;7.37;100.00
21817;BME280;13247;47.504;7.382;2024-03-02T08:55:43;96139.97;;;7.62;100.00
21817;BME280;13247;47.504;7.382;2024-03-02T08:58:28;96137.41;;;7.82;100.00
21817;BME280;13247;47.504;7.382;2024-03-02T09:01:12;96139.81;;;7.65;100.00
21817;BME280;13247;47.504;7.382;2024-03-02T09:03:57;96138.63;;;7.95;100.00
21817;BME280;13247;47.504;7.382;2024-03-02T09:06:41;96145.31;;;8.22;100.00
21817;BME280;13247;47.504;7.382;2024-03-02T09:09:26;96141.16;;;8.40;100.00
21817;BME280;13247;47.504;7.382;2024-03-02T09:12:11;96139.13;;;8.66;100.00
21817;BME280;13247;47.504;7.382;2024-03-02T09:14:56;96126.44;;;8.78;100.00
21817;BME280;13247;47.504;7.382;2024-03-02T09:17:41;96121.41;;;8.93;100.00
21817;BME280;13247;47.504;7.382;2024-03-02T09:20:25;96105.28;;;9.02;100.00
21817;BME280;13247;47.504;7.382;2024-03-02T09:23:10;96100.22;;;9.18;100.00
21817;BME280;13247;47.504;7.382;2024-03-02T09:25:54;96101.63;;;9.43;100.00
21817;BME280;13247;47.504;7.382;2024-03-02T09:28:42;96095.69;;;9.59;100.00
21817;BME280;13247;47.504;7.382;2024-03-02T09:31:27;96087.66;;;9.97;100.00
21817;BME280;13247;47.504;7.382;2024-03-02T09:34:12;96079.72;;;10.17;100.00
21817;BME280;13247;47.504;7.382;2024-03-02T09:36:59;96063.25;;;10.33;100.00
21817;BME280;13247;47.504;7.382;2024-03-02T09:39:44;96056.09;;;10.69;100.00
21817;BME280;13247;47.504;7.382;2024-03-02T09:42:30;96043.56;;;10.91;100.00
21817;BME280;13247;47.504;7.382;2024-03-02T09:45:15;96036.63;;;11.05;100.00
21817;BME280;13247;47.504;7.382;2024-03-02T09:48:00;96035.03;;;11.03;100.00
21817;BME280;13247;47.504;7.382;2024-03-02T09:50:45;96037.44;;;11.23;100.00
21817;BME280;13247;47.504;7.382;2024-03-02T09:53:32;96036.47;;;11.24;100.00
21817;BME280;13247;47.504;7.382;2024-03-02T09:56:17;96029.63;;;11.53;100.00
21817;BME280;13247;47.504;7.382;2024-03-02T09:59:05;96021.31;;;11.45;100.00
21817;BME280;13247;47.504;7.382;2024-03-02T10:01:57;96022.69;;;11.36;100.00
21817;BME280;13247;47.504;7.382;2024-03-02T10:04:45;96019.22;;;11.36;100.00
21817;BME280;13247;47.504;7.382;2024-03-02T10:07:31;96015.25;;;11.44;100.00
21817;BME280;13247;47.504;7.382;2024-03-02T10:10:16;96008.47;;;11.71;100.00
21817;BME280;13247;47.504;7.382;2024-03-02T10:13:06;96017.59;;;11.80;100.00
21817;BME280;13247;47.504;7.382;2024-03-02T10:15:51;96008.72;;;11.82;100.00
21817;BME280;13247;47.504;7.382;2024-03-02T10:18:35;96001.00;;;11.79;100.00
21817;BME280;13247;47.504;7.382;2024-03-02T10:21:20;96000.50;;;12.03;100.00
21817;BME280;13247;47.504;7.382;2024-03-02T10:24:08;96003.34;;;12.14;100.00
21817;BME280;13247;47.504;7.382;2024-03-02T10:26:53;95994.09;;;12.22;100.00
21817;BME280;13247;47.504;7.382;2024-03-02T10:29:39;95989.66;;;12.23;100.00
21817;BME280;13247;47.504;7.382;2024-03-02T10:32:25;95987.13;;;12.21;100.00
21817;BME280;13247;47.504;7.382;2024-03-02T10:35:11;95980.41;;;12.45;100.00
21817;BME280;13247;47.504;7.382;2024-03-02T10:37:56;95984.66;;;12.48;100.00
21817;BME280;13247;47.504;7.382;2024-03-02T10:40:47;95982.78;;;12.50;100.00
21817;BME280;13247;47.504;7.382;2024-03-02T10:43:33;95985.03;;;12.70;100.00
21817;BME280;13247;47.504;7.382;2024-03-02T10:46:20;95976.28;;;12.70;100.00
21817;BME280;13247;47.504;7.382;2024-03-02T10:49:06;95977.34;;;12.67;100.00
21817;BME280;13247;47.504;7.382;2024-03-02T10:51:51;95966.81;;;12.67;100.00
21817;BME280;13247;47.504;7.382;2024-03-02T10:54:35;95964.75;;;12.58;100.00
21817;BME280;13247;47.504;7.382;2024-03-02T10:57:27;95967.16;;;12.61;100.00
21817;BME280;13247;47.504;7.382;2024-03-02T11:00:17;95965.38;;;12.61;100.00
21817;BME280;13247;47.504;7.382;2024-03-02T11:03:07;95965.28;;;12.49;100.00
21817;BME280;13247;47.504;7.382;2024-03-02T11:05:56;95963.41;;;12.51;100.00
21817;BME280;13247;47.504;7.382;2024-03-02T11:08:42;95952.25;;;12.47;100.00
21817;BME280;13247;47.504;7.382;2024-03-02T11:11:30;95947.75;;;12.49;100.00
21817;BME280;13247;47.504;7.382;2024-03-02T11:14:23;95942.28;;;12.67;100.00
21817;BME280;13247;47.504;7.382;2024-03-02T11:17:08;95946.34;;;12.58;100.00
21817;BME280;13247;47.504;7.382;2024-03-02T11:19:54;95948.59;;;12.64;100.00
21817;BME280;13247;47.504;7.382;2024-03-02T11:22:40;95951.59;;;12.72;100.00
21817;BME280;13247;47.504;7.382;2024-03-02T11:25:26;95951.97;;;12.66;100.00
21817;BME280;13247;47.504;7.382;2024-03-02T11:28:11;95950.63;;;12.59;100.00
21817;BME280;13247;47.504;7.382;2024-03-02T11:30:55;95961.16;;;12.59;100.00
21817;BME280;13247;47.504;7.382;2024-03-02T11:33:40;95942.16;;;12.82;100.00
21817;BME280;13247;47.504;7.382;2024-03-02T11:36:25;95929.88;;;12.83;100.00
21817;BME280;13247;47.504;7.382;2024-03-02T11:39:09;95925.34;;;12.85;100.00
21817;BME280;13247;47.504;7.382;2024-03-02T11:41:55;95915.75;;;12.98;100.00
21817;BME280;13247;47.504;7.382;2024-03-02T11:44:41;95913.69;;;12.89;100.00
21817;BME280;13247;47.504;7.382;2024-03-02T11:47:32;95904.03;;;12.89;100.00
21817;BME280;13247;47.504;7.382;2024-03-02T11:50:41;95904.28;;;13.13;100.00
21817;BME280;13247;47.504;7.382;2024-03-02T11:53:27;95888.34;;;13.28;100.00
21817;BME280;13247;47.504;7.382;2024-03-02T11:56:17;95884.88;;;13.28;100.00
21817;BME280;13247;47.504;7.382;2024-03-02T11:59:03;95877.66;;;13.44;100.00
21817;BME280;13247;47.504;7.382;2024-03-02T12:01:48;95876.72;;;13.45;100.00
21817;BME280;13247;47.504;7.382;2024-03-02T12:04:33;95877.50;;;13.60;100.00
21817;BME280;13247;47.504;7.382;2024-03-02T12:07:19;95876.16;;;13.79;100.00
21817;BME280;13247;47.504;7.382;2024-03-02T12:10:08;95870.16;;;13.90;100.00
21817;BME280;13247;47.504;7.382;2024-03-02T12:13:00;95865.00;;;14.01;100.00
21817;BME280;13247;47.504;7.382;2024-03-02T12:15:44;95857.41;;;13.96;100.00
21817;BME280;13247;47.504;7.382;2024-03-02T12:18:29;95857.72;;;14.04;100.00
21817;BME280;13247;47.504;7.382;2024-03-02T12:21:14;95853.09;;;14.08;100.00
21817;BME280;13247;47.504;7.382;2024-03-02T12:23:58;95855.63;;;14.09;100.00
21817;BME280;13247;47.504;7.382;2024-03-02T12:26:43;95851.31;;;14.08;100.00
21817;BME280;13247;47.504;7.382;2024-03-02T12:29:29;95844.47;;;14.06;100.00
21817;BME280;13247;47.504;7.382;2024-03-02T12:32:14;95843.59;;;13.93;100.00
21817;BME280;13247;47.504;7.382;2024-03-02T12:35:00;95839.19;;;13.81;100.00
21817;BME280;13247;47.504;7.382;2024-03-02T12:37:45;95835.16;;;13.75;100.00
21817;BME280;13247;47.504;7.382;2024-03-02T12:40:31;95837.56;;;13.66;100.00
21817;BME280;13247;47.504;7.382;2024-03-02T12:43:16;95832.94;;;13.82;100.00
21817;BME280;13247;47.504;7.382;2024-03-02T12:46:01;95833.19;;;14.04;100.00
21817;BME280;13247;47.504;7.382;2024-03-02T12:48:46;95828.84;;;14.15;100.00
21817;BME280;13247;47.504;7.382;2024-03-02T12:51:31;95824.09;;;14.21;100.00
21817;BME280;13247;47.504;7.382;2024-03-02T12:54:15;95824.09;;;14.21;100.00
21817;BME280;13247;47.504;7.382;2024-03-02T12:57:01;95816.19;;;14.21;100.00
21817;BME280;13247;47.504;7.382;2024-03-02T12:59:46;95811.22;;;14.16;100.00
21817;BME280;13247;47.504;7.382;2024-03-02T13:02:32;95815.56;;;14.17;100.00
21817;BME280;13247;47.504;7.382;2024-03-02T13:05:16;95820.84;;;14.17;100.00
21817;BME280;13247;47.504;7.382;2024-03-02T13:08:02;95818.09;;;14.18;100.00
21817;BME280;13247;47.504;7.382;2024-03-02T13:10:49;95814.63;;;14.05;100.00
21817;BME280;13247;47.504;7.382;2024-03-02T13:13:34;95814.50;;;14.07;100.00
21817;BME280;13247;47.504;7.382;2024-03-02T13:16:19;95815.66;;;14.03;100.00
21817;BME280;13247;47.504;7.382;2024-03-02T13:19:06;95804.59;;;14.10;100.00
21817;BME280;13247;47.504;7.382;2024-03-02T13:21:52;95803.88;;;14.08;100.00
21817;BME280;13247;47.504;7.382;2024-03-02T13:24:36;95800.81;;;14.02;100.00
21817;BME280;13247;47.504;7.382;2024-03-02T13:27:21;95802.06;;;13.96;100.00
21817;BME280;13247;47.504;7.382;2024-03-02T13:30:06;95808.38;;;13.94;100.00
21817;BME280;13247;47.504;7.382;2024-03-02T13:32:53;95797.44;;;14.00;100.00
21817;BME280;13247;47.504;7.382;2024-03-02T13:35:38;95798.69;;;13.94;100.00
21817;BME280;13247;47.504;7.382;2024-03-02T13:38:23;95788.47;;;14.02;100.00
21817;BME280;13247;47.504;7.382;2024-03-02T13:41:07;95793.72;;;13.90;100.00
21817;BME280;13247;47.504;7.382;2024-03-02T13:43:52;95789.75;;;13.84;100.00
21817;BME280;13247;47.504;7.382;2024-03-02T13:46:37;95790.47;;;13.99;100.00
21817;BME280;13247;47.504;7.382;2024-03-02T13:49:22;95782.69;;;13.85;100.00
21817;BME280;13247;47.504;7.382;2024-03-02T13:52:07;95774.25;;;13.92;100.00
21817;BME280;13247;47.504;7.382;2024-03-02T13:54:57;95775.84;;;13.82;100.00
21817;BME280;13247;47.504;7.382;2024-03-02T13:57:41;95772.34;;;13.69;100.00
21817;BME280;13247;47.504;7.382;2024-03-02T14:00:26;95767.38;;;13.65;100.00
21817;BME280;13247;47.504;7.382;2024-03-02T14:03:10;95758.66;;;13.77;100.00
21817;BME280;13247;47.504;7.382;2024-03-02T14:05:55;95761.63;;;13.60;100.00
21817;BME280;13247;47.504;7.382;2024-03-02T14:08:40;95755.38;;;13.61;100.00
21817;BME280;13247;47.504;7.382;2024-03-02T14:11:29;95753.72;;;13.60;100.00
21817;BME280;13247;47.504;7.382;2024-03-02T14:14:13;95752.44;;;13.53;100.00
21817;BME280;13247;47.504;7.382;2024-03-02T14:16:58;95744.22;;;13.45;100.00
21817;BME280;13247;47.504;7.382;2024-03-02T14:19:50;95750.97;;;13.61;100.00
21817;BME280;13247;47.504;7.382;2024-03-02T14:22:35;95746.72;;;13.33;100.00
21817;BME280;13247;47.504;7.382;2024-03-02T14:25:22;95743.16;;;13.47;100.00
21817;BME280;13247;47.504;7.382;2024-03-02T14:28:06;95748.09;;;13.52;100.00
21817;BME280;13247;47.504;7.382;2024-03-02T14:30:51;95748.63;;;13.57;100.00
21817;BME280;13247;47.504;7.382;2024-03-02T14:33:35;95747.59;;;13.72;100.00
21817;BME280;13247;47.504;7.382;2024-03-02T14:36:20;95735.88;;;13.88;100.00
21817;BME280;13247;47.504;7.382;2024-03-02T14:39:05;95731.22;;;13.92;100.00